Terminal Aerodrome Forecast
Issued by NWS

Home | Current Version | Previous Version | Text Only | Print | Product List | Glossary On
Versions: 1 2 3 4 5 6 7 8 9 10 11 12 13 14 15 16 17 18 19 20 21 22 23 24 25 26 27 28 29 30 31 32 33 34 35 36 37 38
000
FTUS46 KPQR 271724
TAFONP
TAF
KONP 271724Z 2718/2818 VRB05KT P6SM FEW015 BKN250
     FM271930 20008KT P6SM SCT120 BKN250
     FM280000 20007KT P6SM SCT050 OVC120
     FM280500 20005KT P6SM BKN030 OVC050
     FM280800 17003KT P6SM -RA SCT015 OVC030
     FM281300 18003KT P6SM -RA BKN008 OVC015=

USA.gov is the U.S. government's official web portal to all federal, state and local government web resources and services.